Terminal Aerodrome Forecast
Issued by NWS Norman, OK

Home | Current Version | Previous Version | Text Only | Print | Product List | Glossary On
Versions: 1 2 3 4 5 6 7 8 9 10 11 12
000
FTUS44 KOUN 200520
TAFOKC
TAF
KOKC 200520Z 2006/2106 18018G26KT P6SM OVC012
      TEMPO 2009/2013 3SM BR BKN008
     FM201500 19015G25KT P6SM BKN012
     FM201900 19014G23KT P6SM SCT025 SCT250
     FM210000 17014KT P6SM SCT250=

USA.gov is the U.S. government's official web portal to all federal, state and local government web resources and services.